createdAt,value
2022-08-17T00:01:32.045Z,6.30
2022-08-17T00:04:19.748Z,5.90
2022-08-17T00:06:49.235Z,6.00
2022-08-17T00:09:18.691Z,5.93
2022-08-17T00:12:35.560Z,5.43
2022-08-17T00:14:35.000Z,6.03
2022-08-17T00:17:03.816Z,6.05
2022-08-17T00:19:32.599Z,6.18
2022-08-17T00:22:33.912Z,6.13
2022-08-17T00:24:50.220Z,5.97
2022-08-17T00:27:18.108Z,6.00
2022-08-17T00:29:45.814Z,6.18
2022-08-17T00:33:11.985Z,5.97
2022-08-17T00:35:05.129Z,6.28
2022-08-17T00:37:32.359Z,6.30
2022-08-17T00:39:59.716Z,6.05
2022-08-17T00:42:30.927Z,6.80
2022-08-17T00:44:58.953Z,6.40
2022-08-17T00:47:26.432Z,6.40
2022-08-17T00:49:54.072Z,6.22
2022-08-17T00:52:23.050Z,5.45
2022-08-17T00:54:52.307Z,6.15
2022-08-17T00:57:35.963Z,6.07
2022-08-17T01:00:10.909Z,5.88
2022-08-17T01:05:15.356Z,6.45
2022-08-17T01:07:42.683Z,6.25
2022-08-17T01:10:59.042Z,6.10
2022-08-17T01:12:59.984Z,6.32
2022-08-17T01:15:27.280Z,6.38
2022-08-17T01:17:54.591Z,6.28
2022-08-17T01:20:21.855Z,5.78
2022-08-17T01:22:49.232Z,6.47
2022-08-17T01:25:16.537Z,6.43
2022-08-17T01:27:43.832Z,7.00
2022-08-17T01:30:57.436Z,6.18
2022-08-17T01:32:59.639Z,6.13
2022-08-17T01:35:26.932Z,6.00
2022-08-17T01:37:54.160Z,6.32
2022-08-17T01:40:32.878Z,6.53
2022-08-17T01:43:10.437Z,6.43
2022-08-17T01:45:49.542Z,6.47
2022-08-17T01:48:32.637Z,5.82
2022-08-17T01:50:59.976Z,6.28
2022-08-17T01:53:32.563Z,6.03
2022-08-17T01:56:08.627Z,6.35
2022-08-17T01:58:36.091Z,6.15
2022-08-17T02:01:04.010Z,5.30
2022-08-17T02:03:31.864Z,6.00
2022-08-17T02:05:59.242Z,6.03
2022-08-17T02:08:38.104Z,6.50
2022-08-17T02:11:11.504Z,6.45
2022-08-17T02:13:39.154Z,6.22
2022-08-17T02:16:06.755Z,6.03
2022-08-17T02:18:34.006Z,5.90
2022-08-17T02:21:01.202Z,6.28
2022-08-17T02:23:30.410Z,6.30
2022-08-17T02:25:58.773Z,6.20
2022-08-17T02:28:26.306Z,6.28
2022-08-17T02:31:01.301Z,5.93
2022-08-17T02:33:43.266Z,5.90
2022-08-17T02:36:12.182Z,6.63
2022-08-17T02:38:39.767Z,6.18
2022-08-17T02:41:07.349Z,5.68
2022-08-17T02:43:34.860Z,6.70
2022-08-17T02:46:02.098Z,6.20
2022-08-17T02:48:31.037Z,6.38
2022-08-17T02:51:00.181Z,6.30
2022-08-17T02:53:27.748Z,6.60
2022-08-17T02:56:03.900Z,6.60
2022-08-17T02:58:35.798Z,6.05
2022-08-17T03:01:07.350Z,6.32
2022-08-17T03:03:34.979Z,6.30
2022-08-17T03:06:02.360Z,6.35
2022-08-17T03:08:29.887Z,5.97
2022-08-17T03:10:57.134Z,6.50
2022-08-17T03:13:24.425Z,6.20
2022-08-17T03:15:51.663Z,6.63
2022-08-17T03:18:25.581Z,6.28
2022-08-17T03:20:55.021Z,6.70
2022-08-17T03:23:23.831Z,6.00
2022-08-17T03:25:52.765Z,5.65
2022-08-17T03:28:21.124Z,5.78
2022-08-17T03:30:48.677Z,5.70
2022-08-17T03:33:16.825Z,5.50
2022-08-17T03:35:44.128Z,5.97
2022-08-17T03:38:11.914Z,5.72
2022-08-17T03:40:56.512Z,5.78
2022-08-17T03:43:28.528Z,5.70
2022-08-17T03:46:28.726Z,6.00
2022-08-17T03:49:22.323Z,5.43
2022-08-17T03:52:08.280Z,6.25
2022-08-17T03:54:53.940Z,5.45
2022-08-17T03:57:21.172Z,5.88
2022-08-17T03:59:48.416Z,5.43
2022-08-17T04:02:28.259Z,5.80
2022-08-17T04:04:55.619Z,5.70
2022-08-17T04:07:24.858Z,5.63
2022-08-17T04:09:52.128Z,5.72
2022-08-17T04:12:21.716Z,5.35
2022-08-17T04:14:52.610Z,6.00
2022-08-17T04:17:26.832Z,6.05
2022-08-17T04:19:54.288Z,5.40
2022-08-17T04:22:30.462Z,6.07
2022-08-17T04:25:07.202Z,5.45
2022-08-17T04:27:34.567Z,5.40
2022-08-17T04:30:02.207Z,5.75
2022-08-17T04:33:03.419Z,5.22
2022-08-17T04:35:21.877Z,5.50
2022-08-17T04:37:49.335Z,5.90
2022-08-17T04:40:35.685Z,5.70
2022-08-17T04:43:10.837Z,5.93
2022-08-17T04:45:55.013Z,5.53
2022-08-17T04:48:36.690Z,5.35
2022-08-17T04:51:32.043Z,5.63
2022-08-17T04:54:01.722Z,5.40
2022-08-17T04:56:29.255Z,5.47
2022-08-17T04:58:58.770Z,5.70
2022-08-17T05:01:28.113Z,4.90
2022-08-17T05:03:56.794Z,5.18
2022-08-17T05:06:24.155Z,4.65
2022-08-17T05:08:51.463Z,5.03
2022-08-17T05:11:18.802Z,4.80
2022-08-17T05:13:46.139Z,4.97
2022-08-17T05:16:13.374Z,5.20
2022-08-17T05:18:40.689Z,4.70
2022-08-17T05:21:07.986Z,4.90
2022-08-17T05:23:42.765Z,4.97
2022-08-17T05:26:25.509Z,4.78
2022-08-17T05:28:57.126Z,4.45
2022-08-17T05:31:27.634Z,4.72
2022-08-17T05:33:54.998Z,4.55
2022-08-17T05:36:42.112Z,4.30
2022-08-17T05:39:15.891Z,4.65
2022-08-17T05:44:12.536Z,4.68
2022-08-17T05:46:40.947Z,4.57
2022-08-17T05:49:08.427Z,4.60
2022-08-17T05:52:06.355Z,4.47
2022-08-17T05:54:47.394Z,4.82
2022-08-17T05:57:51.994Z,4.03
2022-08-17T06:00:31.274Z,4.07
2022-08-17T06:03:04.592Z,4.13
2022-08-17T06:05:43.631Z,3.95
2022-08-17T06:08:48.303Z,4.32
2022-08-17T06:12:00.302Z,4.13
2022-08-17T06:14:43.827Z,3.97
2022-08-17T06:17:13.730Z,3.90
2022-08-17T06:19:43.964Z,3.83
2022-08-17T06:22:12.964Z,3.90
2022-08-17T06:24:50.095Z,3.67
2022-08-17T06:27:35.374Z,3.92
2022-08-17T06:32:43.963Z,4.60
2022-08-17T06:38:07.076Z,4.07
2022-08-17T06:40:45.401Z,4.47
2022-08-17T06:43:39.612Z,4.93
2022-08-17T06:46:11.531Z,4.60
2022-08-17T06:48:46.787Z,4.28
2022-08-17T06:51:40.961Z,4.10
2022-08-17T06:54:10.764Z,4.45
2022-08-17T06:57:11.223Z,4.38
2022-08-17T06:59:55.610Z,4.75
2022-08-17T07:02:51.989Z,4.35
2022-08-17T07:05:22.631Z,4.78
2022-08-17T07:08:11.613Z,4.00
2022-08-17T07:10:47.359Z,4.13
2022-08-17T07:13:25.591Z,4.25
2022-08-17T07:15:57.098Z,4.20
2022-08-17T07:18:28.735Z,4.13
2022-08-17T07:20:59.896Z,4.07
2022-08-17T07:23:38.578Z,4.28
2022-08-17T07:26:06.764Z,3.95
2022-08-17T07:28:34.290Z,4.13
2022-08-17T07:31:02.122Z,4.40
2022-08-17T07:33:30.559Z,4.20
2022-08-17T07:35:58.072Z,4.57
2022-08-17T07:38:29.865Z,3.92
2022-08-17T07:40:57.889Z,4.22
2022-08-17T07:43:29.418Z,4.40
2022-08-17T07:46:33.228Z,3.75
2022-08-17T07:49:03.536Z,4.53
2022-08-17T07:51:36.399Z,4.32
2022-08-17T07:54:14.422Z,4.32
2022-08-17T07:56:48.133Z,4.18
2022-08-17T07:59:23.707Z,4.40
2022-08-17T08:02:08.001Z,3.78
2022-08-17T08:04:59.605Z,4.38
2022-08-17T08:07:35.890Z,4.03
2022-08-17T08:10:12.166Z,4.80
2022-08-17T08:12:42.753Z,4.32
2022-08-17T08:15:23.240Z,4.10
2022-08-17T08:17:53.471Z,4.35
2022-08-17T08:20:51.127Z,3.80
2022-08-17T08:23:42.300Z,4.43
2022-08-17T08:26:30.915Z,4.40
2022-08-17T08:29:35.677Z,4.13
2022-08-17T08:32:20.884Z,3.92
2022-08-17T08:35:06.957Z,3.72
2022-08-17T08:37:49.945Z,4.05
2022-08-17T08:40:35.372Z,4.28
2022-08-17T08:43:14.485Z,4.00
2022-08-17T08:46:02.806Z,3.60
2022-08-17T08:48:56.225Z,4.28
2022-08-17T08:51:27.579Z,3.80
2022-08-17T08:54:01.482Z,3.78
2022-08-17T08:57:22.243Z,4.40
2022-08-17T08:59:58.052Z,4.28
2022-08-17T09:02:43.333Z,4.07
2022-08-17T09:05:30.468Z,4.03
2022-08-17T09:08:18.532Z,3.58
2022-08-17T09:11:17.753Z,3.90
2022-08-17T09:14:05.229Z,4.22
2022-08-17T09:17:02.470Z,4.18
2022-08-17T09:19:39.271Z,3.92
2022-08-17T09:22:12.049Z,3.45
2022-08-17T09:24:43.521Z,3.67
2022-08-17T09:27:20.693Z,4.00
2022-08-17T09:29:49.946Z,3.33
2022-08-17T09:32:39.887Z,3.60
2022-08-17T09:35:13.162Z,3.78
2022-08-17T09:37:53.279Z,4.63
2022-08-17T09:40:24.388Z,4.30
2022-08-17T09:42:59.536Z,4.18
2022-08-17T09:45:39.179Z,3.70
2022-08-17T09:48:20.098Z,3.38
2022-08-17T09:51:04.588Z,3.40
2022-08-17T09:53:37.164Z,4.00
2022-08-17T09:56:24.096Z,3.60
2022-08-17T09:59:03.534Z,3.75
2022-08-17T10:01:38.103Z,4.05
2022-08-17T10:04:29.356Z,4.50
2022-08-17T10:07:07.321Z,3.63
2022-08-17T10:09:46.472Z,3.83
2022-08-17T10:12:20.055Z,3.65
2022-08-17T10:14:53.307Z,3.97
2022-08-17T10:17:57.559Z,3.72
2022-08-17T10:20:49.440Z,3.92
2022-08-17T10:23:40.307Z,3.45
2022-08-17T10:26:27.030Z,3.40
2022-08-17T10:29:20.809Z,3.72
2022-08-17T10:34:44.212Z,3.63
2022-08-17T10:40:15.859Z,3.60
2022-08-17T10:42:50.174Z,3.30
2022-08-17T10:45:21.523Z,3.30
2022-08-17T10:48:05.270Z,3.58
2022-08-17T10:50:49.358Z,3.58
2022-08-17T10:53:31.898Z,4.13
2022-08-17T10:56:38.360Z,3.72
2022-08-17T10:59:05.631Z,3.75
2022-08-17T11:01:32.995Z,3.38
2022-08-17T11:04:11.697Z,3.15
2022-08-17T11:06:38.903Z,3.30
2022-08-17T11:09:31.030Z,3.15
2022-08-17T11:12:37.640Z,2.97
2022-08-17T11:15:42.424Z,3.25
2022-08-17T11:18:24.104Z,3.33
2022-08-17T11:20:57.138Z,3.08
2022-08-17T11:23:34.078Z,3.40
2022-08-17T11:26:04.026Z,3.75
2022-08-17T11:28:35.184Z,3.70
2022-08-17T11:31:05.419Z,3.45
2022-08-17T11:33:36.794Z,3.65
2022-08-17T11:36:14.526Z,3.25
2022-08-17T11:39:05.069Z,3.85
2022-08-17T11:42:05.792Z,3.47
2022-08-17T11:44:37.632Z,3.33
2022-08-17T11:47:33.870Z,3.45
2022-08-17T11:50:41.197Z,3.17
2022-08-17T11:53:08.880Z,3.20
2022-08-17T11:55:44.326Z,3.10
2022-08-17T11:58:30.102Z,3.25
2022-08-17T12:01:01.543Z,3.20
2022-08-17T12:03:32.140Z,3.22
2022-08-17T12:06:30.877Z,3.03
2022-08-17T12:09:22.166Z,2.85
2022-08-17T12:12:11.123Z,3.10
2022-08-17T12:15:07.931Z,2.83
2022-08-17T12:17:39.217Z,2.70
2022-08-17T12:20:27.714Z,3.03
2022-08-17T12:23:12.471Z,2.78
2022-08-17T12:28:26.784Z,3.20
2022-08-17T12:30:54.132Z,3.08
2022-08-17T12:33:28.032Z,2.42
2022-08-17T12:38:34.605Z,2.85
2022-08-17T12:41:23.339Z,3.20
2022-08-17T12:44:04.272Z,3.40
2022-08-17T12:46:34.784Z,2.92
2022-08-17T12:49:31.769Z,3.10
2022-08-17T12:52:19.925Z,2.90
2022-08-17T12:54:59.621Z,2.60
2022-08-17T12:57:38.891Z,3.10
2022-08-17T13:00:22.017Z,2.80
2022-08-17T13:03:00.176Z,2.92
2022-08-17T13:05:36.791Z,3.00
2022-08-17T13:08:15.129Z,2.85
2022-08-17T13:10:42.383Z,2.67
2022-08-17T13:13:24.368Z,2.92
2022-08-17T13:15:56.972Z,2.92
2022-08-17T13:18:40.743Z,2.85
2022-08-17T13:21:22.242Z,2.65
2022-08-17T13:24:10.832Z,2.50
2022-08-17T13:27:01.406Z,2.50
2022-08-17T13:29:43.592Z,3.03
2022-08-17T13:32:13.772Z,2.78
2022-08-17T13:35:14.970Z,2.90
2022-08-17T13:38:01.259Z,2.78
2022-08-17T13:40:32.314Z,2.70
2022-08-17T13:42:59.570Z,2.50
2022-08-17T13:45:36.341Z,2.70
2022-08-17T13:48:06.413Z,2.67
2022-08-17T13:50:34.058Z,2.88
2022-08-17T13:53:01.265Z,2.80
2022-08-17T13:55:28.872Z,3.42
2022-08-17T13:58:07.227Z,2.53
2022-08-17T14:00:36.187Z,2.90
2022-08-17T14:03:04.205Z,2.35
2022-08-17T14:05:31.463Z,2.55
2022-08-17T14:08:02.087Z,2.80
2022-08-17T14:13:03.562Z,2.70
2022-08-17T14:15:55.452Z,2.88
2022-08-17T14:18:30.559Z,2.78
2022-08-17T14:21:08.316Z,2.80
2022-08-17T14:23:36.617Z,2.67
2022-08-17T14:26:04.044Z,3.10
2022-08-17T14:28:32.072Z,2.20
2022-08-17T14:31:00.661Z,2.60
2022-08-17T14:33:28.744Z,2.40
2022-08-17T14:35:57.538Z,2.75
2022-08-17T14:38:24.848Z,2.40
2022-08-17T14:40:52.160Z,2.60
2022-08-17T14:43:20.834Z,2.53
2022-08-17T14:45:48.101Z,2.40
2022-08-17T14:48:15.851Z,2.97
2022-08-17T14:50:43.280Z,2.97
2022-08-17T14:53:11.608Z,2.60
2022-08-17T14:55:40.670Z,3.00
2022-08-17T14:58:09.001Z,2.42
2022-08-17T15:00:36.544Z,2.83
2022-08-17T15:03:03.990Z,2.58
2022-08-17T15:05:33.604Z,2.35
2022-08-17T15:08:01.302Z,2.13
2022-08-17T15:10:29.091Z,2.50
2022-08-17T15:12:56.394Z,2.28
2022-08-17T15:15:23.829Z,2.63
2022-08-17T15:17:51.499Z,2.28
2022-08-17T15:20:23.810Z,2.60
2022-08-17T15:22:54.842Z,2.70
2022-08-17T15:25:22.362Z,2.33
2022-08-17T15:27:49.718Z,2.60
2022-08-17T15:30:17.179Z,2.60
2022-08-17T15:32:50.591Z,2.35
2022-08-17T15:35:18.997Z,2.10
2022-08-17T15:37:55.592Z,2.40
2022-08-17T15:40:22.834Z,2.08
2022-08-17T15:42:51.013Z,2.30
2022-08-17T15:45:18.234Z,2.45
2022-08-17T15:47:46.579Z,2.17
2022-08-17T15:50:13.899Z,2.10
2022-08-17T15:52:43.010Z,2.17
2022-08-17T15:55:12.546Z,2.83
2022-08-17T15:57:40.101Z,2.30
2022-08-17T16:00:08.406Z,2.50
2022-08-17T16:03:44.586Z,2.30
2022-08-17T16:05:28.427Z,2.13
2022-08-17T16:07:59.687Z,2.42
2022-08-17T16:10:34.739Z,2.35
2022-08-17T16:13:03.537Z,2.40
2022-08-17T16:15:33.804Z,2.42
2022-08-17T16:18:01.062Z,2.25
2022-08-17T16:20:28.362Z,2.42
2022-08-17T16:22:55.751Z,2.30
2022-08-17T16:25:47.153Z,2.38
2022-08-17T16:28:15.821Z,2.45
2022-08-17T16:30:43.122Z,2.40
2022-08-17T16:33:11.551Z,2.33
2022-08-17T16:35:38.855Z,2.75
2022-08-17T16:38:07.011Z,2.30
2022-08-17T16:40:35.886Z,2.45
2022-08-17T16:43:04.292Z,2.42
2022-08-17T16:45:40.050Z,2.40
2022-08-17T16:48:07.817Z,2.35
2022-08-17T16:50:35.666Z,2.78
2022-08-17T16:53:06.531Z,2.60
2022-08-17T16:55:35.717Z,2.33
2022-08-17T16:58:04.354Z,2.47
2022-08-17T17:00:33.267Z,2.70
2022-08-17T17:03:19.918Z,2.67
2022-08-17T17:05:57.762Z,2.30
2022-08-17T17:08:30.288Z,2.28
2022-08-17T17:10:58.829Z,2.78
2022-08-17T17:13:43.690Z,2.40
2022-08-17T17:16:18.615Z,2.47
2022-08-17T17:18:58.099Z,2.60
2022-08-17T17:21:28.064Z,2.40
2022-08-17T17:23:57.522Z,2.33
2022-08-17T17:27:00.515Z,2.60
2022-08-17T17:29:47.446Z,2.53
2022-08-17T17:32:30.961Z,2.40
2022-08-17T17:35:07.858Z,2.70
2022-08-17T17:37:35.445Z,2.50
2022-08-17T17:40:12.546Z,2.13
2022-08-17T17:42:40.557Z,2.40
2022-08-17T17:45:25.864Z,2.50
2022-08-17T17:47:53.370Z,2.50
2022-08-17T17:50:23.418Z,2.50
2022-08-17T17:53:04.297Z,2.75
2022-08-17T17:55:43.084Z,2.40
2022-08-17T17:58:26.063Z,2.70
2022-08-17T18:01:08.408Z,2.63
2022-08-17T18:03:41.631Z,2.53
2022-08-17T18:06:15.028Z,2.40
2022-08-17T18:09:01.996Z,2.50
2022-08-17T18:11:42.240Z,2.60
2022-08-17T18:14:28.803Z,2.70
2022-08-17T18:16:57.253Z,2.90
2022-08-17T18:19:26.116Z,2.83
2022-08-17T18:21:56.437Z,2.80
2022-08-17T18:24:32.112Z,2.85
2022-08-17T18:27:00.446Z,3.20
2022-08-17T18:29:27.690Z,2.50
2022-08-17T18:32:31.150Z,3.10
2022-08-17T18:35:02.700Z,2.75
2022-08-17T18:37:31.541Z,2.78
2022-08-17T18:39:58.971Z,2.50
2022-08-17T18:42:28.240Z,2.80
2022-08-17T18:44:55.993Z,2.80
2022-08-17T18:47:24.994Z,2.90
2022-08-17T18:49:57.555Z,2.83
2022-08-17T18:52:27.656Z,3.33
2022-08-17T18:55:27.728Z,3.20
2022-08-17T18:58:14.651Z,3.00
2022-08-17T19:00:46.042Z,3.15
2022-08-17T19:03:16.365Z,3.20
2022-08-17T19:05:46.105Z,3.33
2022-08-17T19:08:31.147Z,3.10
2022-08-17T19:10:59.228Z,3.20
2022-08-17T19:13:37.648Z,3.13
2022-08-17T19:16:14.939Z,3.40
2022-08-17T19:18:57.927Z,3.08
2022-08-17T19:21:25.751Z,3.20
2022-08-17T19:24:19.128Z,3.22
2022-08-17T19:27:06.377Z,3.55
2022-08-17T19:29:50.021Z,3.67
2022-08-17T19:32:21.507Z,3.40
2022-08-17T19:34:49.150Z,3.55
2022-08-17T19:37:25.292Z,3.45
2022-08-17T19:39:59.837Z,3.72
2022-08-17T19:43:01.967Z,3.45
2022-08-17T19:46:05.875Z,3.70
2022-08-17T19:49:08.415Z,3.85
2022-08-17T19:51:40.975Z,3.72
2022-08-17T19:54:20.430Z,3.70
2022-08-17T19:57:06.041Z,3.72
2022-08-17T19:59:51.475Z,4.00
2022-08-17T20:02:37.086Z,3.75
2022-08-17T20:05:26.457Z,4.00
2022-08-17T20:08:03.117Z,3.90
2022-08-17T20:10:48.049Z,4.07
2022-08-17T20:13:44.566Z,4.07
2022-08-17T20:16:11.964Z,4.03
2022-08-17T20:19:02.853Z,3.70
2022-08-17T20:21:41.300Z,4.03
2022-08-17T20:24:20.147Z,3.97
2022-08-17T20:27:42.584Z,3.80
2022-08-17T20:30:23.157Z,3.83
2022-08-17T20:32:58.000Z,4.07
2022-08-17T20:35:33.022Z,4.43
2022-08-17T20:38:11.158Z,3.67
2022-08-17T20:40:54.633Z,3.80
2022-08-17T20:43:36.520Z,4.22
2022-08-17T20:46:09.199Z,4.22
2022-08-17T20:48:42.622Z,4.15
2022-08-17T20:52:00.545Z,3.92
2022-08-17T20:54:47.626Z,3.95
2022-08-17T20:57:33.311Z,4.00
2022-08-17T21:00:19.073Z,4.03
2022-08-17T21:02:49.462Z,4.00
2022-08-17T21:05:36.284Z,3.85
2022-08-17T21:08:14.925Z,3.90
2022-08-17T21:10:45.491Z,4.22
2022-08-17T21:13:13.504Z,3.50
2022-08-17T21:16:27.440Z,4.15
2022-08-17T21:18:54.628Z,4.35
2022-08-17T21:21:49.422Z,4.20
2022-08-17T21:24:50.644Z,4.28
2022-08-17T21:27:21.715Z,4.00
2022-08-17T21:30:30.290Z,3.90
2022-08-17T21:33:10.164Z,3.50
2022-08-17T21:35:53.245Z,4.10
2022-08-17T21:38:57.802Z,3.47
2022-08-17T21:41:34.982Z,3.78
2022-08-17T21:44:11.167Z,3.58
2022-08-17T21:46:42.800Z,3.30
2022-08-17T21:49:16.578Z,3.58
2022-08-17T21:51:49.918Z,3.53
2022-08-17T21:54:23.079Z,3.72
2022-08-17T21:56:50.313Z,3.47
2022-08-17T21:59:29.802Z,4.00
2022-08-17T22:02:08.819Z,4.03
2022-08-17T22:04:37.044Z,4.47
2022-08-17T22:07:07.032Z,4.40
2022-08-17T22:09:55.459Z,3.95
2022-08-17T22:12:24.204Z,4.10
2022-08-17T22:15:07.427Z,4.35
2022-08-17T22:17:36.409Z,4.18
2022-08-17T22:20:14.844Z,4.60
2022-08-17T22:23:06.815Z,5.07
2022-08-17T22:25:41.323Z,5.25
2022-08-17T22:28:10.128Z,5.10
2022-08-17T22:30:42.075Z,5.13
2022-08-17T22:33:29.493Z,5.32
2022-08-17T22:36:30.975Z,5.25
2022-08-17T22:39:00.012Z,5.88
2022-08-17T22:41:34.359Z,6.00
2022-08-17T22:44:24.297Z,6.65
2022-08-17T22:47:00.442Z,7.07
2022-08-17T22:49:32.979Z,6.80
2022-08-17T22:52:21.387Z,6.88
2022-08-17T22:55:27.802Z,7.30
2022-08-17T22:58:13.538Z,7.18
2022-08-17T23:00:43.646Z,8.15
2022-08-17T23:03:12.797Z,7.22
2022-08-17T23:05:42.926Z,7.00
2022-08-17T23:08:11.532Z,8.30
2022-08-17T23:10:41.319Z,7.95
2022-08-17T23:13:11.724Z,7.95
2022-08-17T23:15:41.756Z,8.10
2022-08-17T23:18:09.126Z,8.48
2022-08-17T23:20:37.460Z,8.55
2022-08-17T23:23:06.710Z,8.20
2022-08-17T23:25:34.712Z,8.07
2022-08-17T23:28:03.251Z,8.52
2022-08-17T23:30:31.480Z,8.10
2022-08-17T23:33:01.015Z,7.90
2022-08-17T23:35:39.868Z,7.80
2022-08-17T23:38:11.864Z,8.02
2022-08-17T23:40:39.904Z,7.93
2022-08-17T23:43:23.435Z,7.40
2022-08-17T23:45:56.100Z,7.70
2022-08-17T23:48:34.931Z,7.45
2022-08-17T23:51:12.775Z,7.50
2022-08-17T23:53:47.163Z,7.68
2022-08-17T23:56:14.663Z,7.05
2022-08-17T23:58:42.623Z,7.75
